Annville, Pennsylvania
Current Conditions -  °F | °C
As of 3:58 PM on Tuesday 21 Oct 2014 (Local Time) from KMUI Reporting Station
Few Clouds Few Clouds  
Wind Chill: 62°   Ceiling: Unl
Heat Index: 62°   Visibility: 10mi
Dew Point: 51°   Wind: 2mph
Humidity: 67%   Direction: 310°NW
Pressure: 29.83"   Gusts: NA
Location:  40.33°N, 76.51°W
Report Text: KMUI 211958Z AUTO 31002KT 10SM FEW095 16/10 A2983 RMK AO2 SLP104 T01640103 $
Loading
Personal Weather Stations






























Interactive Weather Map
Tropical Storm Tracking
New forecast layout! Learn more

10-Day Weather Forecast

Advertisements
Track Severe Weather on mobile